Time;durP1;ratioP1;P1;durP2;ratioP2;P2;SDS_P1;SDS_P2;PMS_P1;PMS_P2;Temp;Humidity;BMP_temperature;BMP_pressure;BME280_temperature;BME280_humidity;BME280_pressure;Samples;Min_cycle;Max_cycle;Signal;HPM_P1;HPM_P2
2023/12/18 00:59:13;;;;;;;;;;;4.40;99.90;;;;;;6727479;88;20291;-82
2023/12/18 01:09:14;;;;;;;;;;;4.40;99.90;;;;;;6728374;88;20082;-82
2023/12/18 01:19:14;;;;;;;;;;;4.20;99.90;;;;;;6730196;88;20907;-81
2023/12/18 01:29:15;;;;;;;;;;;4.10;99.90;;;;;;6719161;88;20063;-82
2023/12/18 01:39:15;;;;;;;;;;;4.10;99.90;;;;;;6723407;88;20157;-81
2023/12/18 01:49:16;;;;;;;;;;;4.20;99.90;;;;;;6722888;88;20076;-81
2023/12/18 01:59:17;;;;;;;;;;;3.90;99.90;;;;;;6740492;88;20054;-81
2023/12/18 02:09:18;;;;;;;;;;;3.70;99.90;;;;;;6736259;88;20080;-81
2023/12/18 02:19:25;;;;;;;;;;;3.50;99.90;;;;;;6736949;88;20529;-82
2023/12/18 02:29:25;;;;;;;;;;;3.40;99.90;;;;;;6740173;88;20055;-82
2023/12/18 02:39:26;;;;;;;;;;;3.20;99.90;;;;;;6737366;88;20084;-82
2023/12/18 02:49:26;;;;;;;;;;;3.20;99.90;;;;;;6722859;88;20076;-82
2023/12/18 02:59:27;;;;;;;;;;;3.10;99.90;;;;;;6724742;88;20543;-81
2023/12/18 03:09:27;;;;;;;;;;;3.00;99.90;;;;;;6714003;88;20202;-80
2023/12/18 03:19:28;;;;;;;;;;;2.90;99.90;;;;;;6721319;88;20522;-80
2023/12/18 03:29:28;;;;;;;;;;;2.80;99.90;;;;;;6726629;88;20216;-80
2023/12/18 03:39:29;;;;;;;;;;;2.80;99.90;;;;;;6735876;88;20068;-81
2023/12/18 03:49:29;;;;;;;;;;;2.80;99.90;;;;;;6735515;88;21227;-81
2023/12/18 03:59:30;;;;;;;;;;;2.60;99.90;;;;;;6736107;88;20070;-79
2023/12/18 04:09:30;;;;;;;;;;;2.50;99.90;;;;;;6732862;88;20063;-81
2023/12/18 04:19:30;;;;;;;;;;;2.50;99.90;;;;;;6735123;88;20483;-81
2023/12/18 04:29:31;;;;;;;;;;;2.60;99.90;;;;;;6732203;88;20086;-81
2023/12/18 04:39:32;;;;;;;;;;;2.50;99.90;;;;;;6740149;88;20055;-81
2023/12/18 04:49:32;;;;;;;;;;;2.50;99.90;;;;;;6735816;88;20099;-81
2023/12/18 04:59:33;;;;;;;;;;;2.50;99.90;;;;;;6737153;88;20066;-81
2023/12/18 05:09:33;;;;;;;;;;;2.40;99.90;;;;;;6732552;88;20066;-81
2023/12/18 05:19:34;;;;;;;;;;;2.40;99.90;;;;;;6734221;88;20099;-81
2023/12/18 05:29:34;;;;;;;;;;;2.30;99.90;;;;;;6734631;88;20102;-80
2023/12/18 05:39:35;;;;;;;;;;;2.30;99.90;;;;;;6734346;88;20105;-80
2023/12/18 05:49:35;;;;;;;;;;;2.20;99.90;;;;;;6732007;88;20049;-80
2023/12/18 05:59:35;;;;;;;;;;;2.20;99.90;;;;;;6733977;88;20058;-79
2023/12/18 06:09:36;;;;;;;;;;;2.30;99.90;;;;;;6735466;88;20047;-79
2023/12/18 06:19:37;;;;;;;;;;;2.20;99.90;;;;;;6740975;88;20141;-80
2023/12/18 06:29:37;;;;;;;;;;;2.10;99.90;;;;;;6732371;88;20079;-79
2023/12/18 06:39:38;;;;;;;;;;;2.00;99.90;;;;;;6737977;88;20520;-79
2023/12/18 06:59:42;;;;;;;;;;;2.00;99.90;;;;;;6679982;88;20573;-81
2023/12/18 07:09:42;;;;;;;;;;;1.90;99.90;;;;;;6698591;88;20097;-81
2023/12/18 07:19:43;;;;;;;;;;;1.90;99.90;;;;;;6699652;88;20299;-80
2023/12/18 07:29:43;;;;;;;;;;;1.90;99.90;;;;;;6697028;88;20048;-78
2023/12/18 07:39:43;;;;;;;;;;;1.80;99.90;;;;;;6692398;88;20559;-78
2023/12/18 07:49:44;;;;;;;;;;;1.80;99.90;;;;;;6690549;88;20066;-78
2023/12/18 07:59:45;;;;;;;;;;;1.80;99.90;;;;;;6703133;88;20059;-78
2023/12/18 08:09:45;;;;;;;;;;;1.70;99.90;;;;;;6704117;88;20050;-78
2023/12/18 08:19:46;;;;;;;;;;;1.80;99.90;;;;;;6710687;88;20060;-79
2023/12/18 08:29:47;;;;;;;;;;;1.90;99.90;;;;;;6708909;88;20551;-79
2023/12/18 08:39:47;;;;;;;;;;;2.00;99.90;;;;;;6714076;88;20078;-79
2023/12/18 08:49:48;;;;;;;;;;;2.30;99.90;;;;;;6714294;88;20099;-78
2023/12/18 08:59:51;;;;;;;;;;;2.60;99.90;;;;;;6726925;88;20053;-79
2023/12/18 09:09:51;;;;;;;;;;;3.00;99.90;;;;;;6721217;88;20079;-78
2023/12/18 09:19:52;;;;;;;;;;;3.50;99.90;;;;;;6725106;88;20090;-79
2023/12/18 09:29:52;;;;;;;;;;;3.90;99.90;;;;;;6734016;88;20139;-78
2023/12/18 09:39:53;;;;;;;;;;;4.40;99.90;;;;;;6720735;88;20095;-78
2023/12/18 09:49:54;;;;;;;;;;;4.70;99.90;;;;;;6717433;88;20075;-78
2023/12/18 09:59:54;;;;;;;;;;;4.80;99.90;;;;;;6715209;88;20081;-78
2023/12/18 10:09:55;;;;;;;;;;;5.20;99.90;;;;;;6711878;88;20133;-79
2023/12/18 10:19:55;;;;;;;;;;;5.80;99.90;;;;;;6730546;88;20158;-78
2023/12/18 10:29:56;;;;;;;;;;;6.10;99.90;;;;;;6729039;88;20067;-78
2023/12/18 10:40:00;;;;;;;;;;;6.50;99.90;;;;;;6730829;88;20577;-78
2023/12/18 10:50:01;;;;;;;;;;;6.80;99.90;;;;;;6728519;88;20572;-78
2023/12/18 11:00:03;;;;;;;;;;;7.10;99.90;;;;;;6726990;88;20113;-78
2023/12/18 11:10:05;;;;;;;;;;;7.30;99.90;;;;;;6730216;88;20137;-78
2023/12/18 11:20:19;;;;;;;;;;;7.30;99.90;;;;;;6728050;88;20082;-77
2023/12/18 11:30:24;;;;;;;;;;;7.90;99.90;;;;;;6730662;88;20051;-77
2023/12/18 11:40:35;;;;;;;;;;;8.60;99.90;;;;;;6728391;88;20059;-78
2023/12/18 11:50:37;;;;;;;;;;;9.10;99.90;;;;;;6727424;88;20076;-79
2023/12/18 12:00:40;;;;;;;;;;;9.70;99.90;;;;;;6731641;88;20107;-79
2023/12/18 12:10:41;;;;;;;;;;;10.00;99.90;;;;;;6716213;88;20147;-79
2023/12/18 12:20:42;;;;;;;;;;;11.30;99.90;;;;;;6738674;88;20098;-79
2023/12/18 12:30:45;;;;;;;;;;;11.40;99.90;;;;;;6731757;88;20512;-79
2023/12/18 12:40:46;;;;;;;;;;;11.40;99.90;;;;;;6735837;88;20096;-78
2023/12/18 13:00:50;;;;;;;;;;;12.10;99.90;;;;;;6679136;89;20280;-81
2023/12/18 13:10:51;;;;;;;;;;;12.00;99.90;;;;;;6679865;89;20640;-79
2023/12/18 13:20:52;;;;;;;;;;;12.40;99.90;;;;;;6656993;89;20065;-78
2023/12/18 13:30:52;;;;;;;;;;;11.60;99.90;;;;;;6658301;89;20061;-79
2023/12/18 13:40:53;;;;;;;;;;;13.60;99.90;;;;;;6674577;89;20079;-79
2023/12/18 13:50:53;;;;;;;;;;;14.40;99.90;;;;;;6678489;88;20074;-78
2023/12/18 14:00:54;;;;;;;;;;;13.10;99.90;;;;;;6688814;88;20105;-78
2023/12/18 14:10:55;;;;;;;;;;;12.60;99.90;;;;;;6689632;88;20077;-79
2023/12/18 14:20:56;;;;;;;;;;;11.90;99.90;;;;;;6690142;88;20060;-79
2023/12/18 14:30:57;;;;;;;;;;;11.70;99.90;;;;;;6691352;88;20067;-79
2023/12/18 14:40:57;;;;;;;;;;;11.10;99.90;;;;;;6689024;88;20550;-79
2023/12/18 14:50:57;;;;;;;;;;;10.60;99.90;;;;;;6698425;88;20057;-79
2023/12/18 15:00:58;;;;;;;;;;;9.80;99.90;;;;;;6692916;88;20113;-79
2023/12/18 15:10:59;;;;;;;;;;;8.60;99.90;;;;;;6688586;89;20507;-80
2023/12/18 15:21:00;;;;;;;;;;;8.10;99.90;;;;;;6694806;88;20601;-80
2023/12/18 15:31:00;;;;;;;;;;;7.40;99.90;;;;;;6692579;88;20083;-78
2023/12/18 15:41:00;;;;;;;;;;;7.30;99.90;;;;;;6695055;88;20095;-81
2023/12/18 15:51:02;;;;;;;;;;;6.80;99.90;;;;;;6699604;88;20060;-81
2023/12/18 16:01:02;;;;;;;;;;;5.80;99.90;;;;;;6697813;88;20110;-80
2023/12/18 16:11:03;;;;;;;;;;;5.30;99.90;;;;;;6699428;88;20621;-80
2023/12/18 16:21:04;;;;;;;;;;;5.20;99.90;;;;;;6700184;88;20158;-81
2023/12/18 16:31:05;;;;;;;;;;;5.00;99.90;;;;;;6700353;88;20647;-81
2023/12/18 16:41:07;;;;;;;;;;;4.90;99.90;;;;;;6705419;88;20064;-82
2023/12/18 16:51:07;;;;;;;;;;;4.60;99.90;;;;;;6706992;88;20598;-80
2023/12/18 17:01:08;;;;;;;;;;;4.40;99.90;;;;;;6704827;88;20098;-80
2023/12/18 17:11:08;;;;;;;;;;;4.10;99.90;;;;;;6705146;88;20597;-81
2023/12/18 17:21:09;;;;;;;;;;;3.90;99.90;;;;;;6699152;88;20084;-81
2023/12/18 17:31:09;;;;;;;;;;;3.90;99.90;;;;;;6702889;88;20699;-80
2023/12/18 17:41:10;;;;;;;;;;;3.70;99.90;;;;;;6702313;88;20070;-81
2023/12/18 17:51:10;;;;;;;;;;;3.50;99.90;;;;;;6707233;88;20813;-81
2023/12/18 18:01:14;;;;;;;;;;;3.20;99.90;;;;;;6703055;88;20102;-81
2023/12/18 18:11:14;;;;;;;;;;;3.10;99.90;;;;;;6700370;88;20535;-80
2023/12/18 18:21:16;;;;;;;;;;;3.10;99.90;;;;;;6701024;88;20191;-81
2023/12/18 18:31:16;;;;;;;;;;;3.10;99.90;;;;;;6695498;88;20114;-81
2023/12/18 18:41:17;;;;;;;;;;;3.10;99.90;;;;;;6698378;88;20653;-81
2023/12/18 19:21:27;;;;;;;;;;;3.00;99.90;;;;;;6772288;88;20102;-85
2023/12/18 20:11:46;;;;;;;;;;;2.70;99.90;;;;;;7279327;77;20129;-84
2023/12/18 20:21:50;;;;;;;;;;;2.70;99.90;;;;;;6746827;88;20806;-83
2023/12/18 20:32:00;;;;;;;;;;;2.80;99.90;;;;;;6730343;88;20023;-84
2023/12/18 21:22:57;;;;;;;;;;;2.60;99.90;;;;;;4086493;77;20086;-86
2023/12/18 21:43:04;;;;;;;;;;;2.50;99.90;;;;;;6697541;88;20232;-83
2023/12/18 21:53:05;;;;;;;;;;;2.60;99.90;;;;;;6709595;88;20082;-85
2023/12/18 22:33:59;;;;;;;;;;;3.10;99.90;;;;;;6769124;88;20053;-84
2023/12/18 22:54:11;;;;;;;;;;;3.20;99.90;;;;;;6752909;88;20058;-85
2023/12/18 23:46:19;;;;;;;;;;;3.60;99.90;;;;;;6755803;88;20105;-87
